Time;durP1;ratioP1;P1;durP2;ratioP2;P2;SDS_P1;SDS_P2;PMS_P1;PMS_P2;Temp;Humidity;BMP_temperature;BMP_pressure;BME280_temperature;BME280_humidity;BME280_pressure;Samples;Min_cycle;Max_cycle;Signal;HPM_P1;HPM_P2
2023/11/05 00:01:04;;;;;;;0.30;0.20;;;;;;;;;;5025416;28;20065;-55
2023/11/05 00:03:30;;;;;;;0.43;0.10;;;;;;;;;;5025823;28;21255;-55
2023/11/05 00:05:55;;;;;;;0.90;0.20;;;;;;;;;;5023434;28;20053;-56
2023/11/05 00:08:21;;;;;;;0.20;0.10;;;;;;;;;;5016797;28;20037;-56
2023/11/05 00:10:46;;;;;;;0.65;0.10;;;;;;;;;;5033800;28;20140;-55
2023/11/05 00:13:12;;;;;;;0.50;0.20;;;;;;;;;;5025431;28;20033;-58
2023/11/05 00:15:38;;;;;;;0.55;0.20;;;;;;;;;;5025114;28;20029;-55
2023/11/05 00:18:03;;;;;;;0.30;0.20;;;;;;;;;;5023330;28;20517;-57
2023/11/05 00:20:28;;;;;;;0.60;0.20;;;;;;;;;;5023545;28;20046;-55
2023/11/05 00:22:53;;;;;;;2.13;0.30;;;;;;;;;;5025465;28;20047;-54
2023/11/05 00:25:19;;;;;;;0.50;0.20;;;;;;;;;;5022050;28;20037;-55
2023/11/05 00:27:44;;;;;;;0.40;0.10;;;;;;;;;;5018241;28;20386;-56
2023/11/05 00:30:09;;;;;;;0.30;0.10;;;;;;;;;;5024853;28;20398;-55
2023/11/05 00:32:35;;;;;;;0.20;0.10;;;;;;;;;;5024988;28;20043;-54
2023/11/05 00:35:00;;;;;;;0.32;0.10;;;;;;;;;;5024002;28;20399;-56
2023/11/05 00:37:25;;;;;;;1.40;0.20;;;;;;;;;;5021607;28;20394;-55
2023/11/05 00:39:51;;;;;;;0.45;0.20;;;;;;;;;;5025917;28;20033;-58
2023/11/05 00:42:16;;;;;;;0.93;0.25;;;;;;;;;;5019122;28;20081;-58
2023/11/05 00:44:41;;;;;;;0.68;0.20;;;;;;;;;;5028690;28;20493;-57
2023/11/05 00:47:06;;;;;;;0.65;0.20;;;;;;;;;;5018234;28;20046;-55
2023/11/05 00:49:32;;;;;;;1.25;0.20;;;;;;;;;;5019518;28;20473;-58
2023/11/05 00:51:57;;;;;;;0.68;0.20;;;;;;;;;;5014228;28;20359;-55
2023/11/05 00:54:22;;;;;;;0.43;0.20;;;;;;;;;;5031980;28;20039;-55
2023/11/05 00:56:47;;;;;;;0.88;0.30;;;;;;;;;;5022157;28;21009;-56
2023/11/05 00:59:13;;;;;;;0.73;0.30;;;;;;;;;;5029128;28;20119;-55
2023/11/05 01:04:44;;;;;;;0.75;0.40;;;;;;;;;;5053166;22;20043;-58
2023/11/05 01:07:09;;;;;;;1.33;0.30;;;;;;;;;;5054264;28;20036;-58
2023/11/05 01:09:35;;;;;;;0.57;0.20;;;;;;;;;;5099313;22;20055;-55
2023/11/05 01:12:00;;;;;;;0.47;0.20;;;;;;;;;;5049503;28;20559;-55
2023/11/05 01:14:26;;;;;;;0.63;0.20;;;;;;;;;;5058833;28;20025;-56
2023/11/05 01:16:51;;;;;;;0.57;0.15;;;;;;;;;;5044935;28;20294;-55
2023/11/05 01:19:16;;;;;;;0.50;0.20;;;;;;;;;;5053176;28;20129;-56
2023/11/05 01:21:41;;;;;;;0.45;0.20;;;;;;;;;;5071220;28;20714;-56
2023/11/05 01:24:07;;;;;;;0.82;0.32;;;;;;;;;;5084147;22;20599;-77
2023/11/05 01:26:32;;;;;;;0.90;0.38;;;;;;;;;;5052395;28;20692;-78
2023/11/05 01:29:00;;;;;;;0.47;0.20;;;;;;;;;;5048614;28;20040;-76
2023/11/05 01:31:25;;;;;;;0.50;0.30;;;;;;;;;;5057227;28;20032;-77
2023/11/05 01:33:50;;;;;;;0.93;0.25;;;;;;;;;;5061491;28;20051;-79
2023/11/05 01:36:16;;;;;;;0.55;0.30;;;;;;;;;;5056024;28;20416;-78
2023/11/05 01:38:41;;;;;;;1.33;0.30;;;;;;;;;;5048525;28;20044;-77
2023/11/05 01:41:06;;;;;;;0.50;0.20;;;;;;;;;;5061455;28;20039;-80
2023/11/05 01:43:31;;;;;;;1.13;0.30;;;;;;;;;;5058545;28;20508;-74
2023/11/05 01:45:57;;;;;;;0.40;0.20;;;;;;;;;;5049174;28;20260;-74
2023/11/05 01:48:22;;;;;;;0.60;0.20;;;;;;;;;;5055362;28;20587;-74
2023/11/05 01:50:47;;;;;;;0.90;0.25;;;;;;;;;;5048528;28;20479;-73
2023/11/05 01:53:13;;;;;;;0.80;0.20;;;;;;;;;;5047775;28;20650;-73
2023/11/05 01:55:38;;;;;;;0.43;0.20;;;;;;;;;;5060923;28;20170;-73
2023/11/05 01:58:03;;;;;;;1.00;0.20;;;;;;;;;;5047814;28;20475;-72
2023/11/05 02:00:29;;;;;;;0.68;0.22;;;;;;;;;;5039648;28;20075;-71
2023/11/05 02:02:55;;;;;;;0.70;0.30;;;;;;;;;;5048765;28;20083;-73
2023/11/05 02:05:20;;;;;;;0.98;0.20;;;;;;;;;;5052429;28;20048;-74
2023/11/05 02:07:46;;;;;;;0.50;0.30;;;;;;;;;;5045255;28;20029;-71
2023/11/05 02:10:12;;;;;;;0.60;0.30;;;;;;;;;;5045423;28;20508;-72
2023/11/05 02:12:37;;;;;;;0.50;0.20;;;;;;;;;;5047239;28;20507;-71
2023/11/05 02:15:03;;;;;;;0.43;0.20;;;;;;;;;;5059441;28;20021;-71
2023/11/05 02:17:28;;;;;;;0.77;0.20;;;;;;;;;;5060298;28;20504;-69
2023/11/05 02:19:53;;;;;;;1.77;0.30;;;;;;;;;;5052121;28;20125;-72
2023/11/05 02:22:19;;;;;;;0.57;0.30;;;;;;;;;;5062328;28;20820;-72
2023/11/05 02:24:45;;;;;;;0.60;0.30;;;;;;;;;;5049809;28;20439;-72
2023/11/05 02:27:10;;;;;;;0.73;0.30;;;;;;;;;;5051587;28;20076;-71
2023/11/05 02:29:35;;;;;;;0.82;0.30;;;;;;;;;;5056792;28;20476;-71
2023/11/05 02:32:03;;;;;;;0.90;0.30;;;;;;;;;;5049373;28;20041;-72
2023/11/05 02:34:28;;;;;;;0.63;0.20;;;;;;;;;;5058257;28;20317;-72
2023/11/05 02:36:55;;;;;;;0.30;0.20;;;;;;;;;;5051595;28;20072;-71
2023/11/05 02:39:20;;;;;;;1.38;0.40;;;;;;;;;;5061427;28;20186;-71
2023/11/05 02:41:45;;;;;;;0.80;0.30;;;;;;;;;;5051409;28;20119;-72
2023/11/05 02:44:11;;;;;;;0.70;0.22;;;;;;;;;;5065975;28;20072;-73
2023/11/05 02:46:37;;;;;;;0.75;0.30;;;;;;;;;;5062272;28;20036;-70
2023/11/05 02:49:02;;;;;;;0.52;0.30;;;;;;;;;;5055633;28;20757;-70
2023/11/05 02:51:28;;;;;;;0.93;0.38;;;;;;;;;;5054130;28;20025;-70
2023/11/05 02:53:53;;;;;;;0.88;0.40;;;;;;;;;;5059271;28;20036;-72
2023/11/05 02:56:19;;;;;;;0.40;0.30;;;;;;;;;;5063359;28;20048;-72
2023/11/05 02:58:44;;;;;;;0.35;0.20;;;;;;;;;;5074730;28;20035;-72
2023/11/05 03:01:10;;;;;;;1.23;0.40;;;;;;;;;;5075523;28;20098;-71
2023/11/05 03:03:35;;;;;;;0.98;0.32;;;;;;;;;;5079800;28;20048;-71
2023/11/05 03:06:01;;;;;;;0.93;0.40;;;;;;;;;;5054959;28;20090;-71
2023/11/05 03:08:26;;;;;;;0.60;0.20;;;;;;;;;;5051224;28;20407;-70
2023/11/05 03:10:52;;;;;;;2.45;0.40;;;;;;;;;;5061983;28;20032;-73
2023/11/05 03:13:18;;;;;;;0.55;0.30;;;;;;;;;;5054465;28;20037;-71
2023/11/05 03:15:43;;;;;;;1.45;0.40;;;;;;;;;;5062242;28;20029;-72
2023/11/05 03:18:13;;;;;;;0.47;0.28;;;;;;;;;;5050114;28;20045;-72
2023/11/05 03:20:39;;;;;;;0.63;0.30;;;;;;;;;;5053062;28;20048;-71
2023/11/05 03:23:10;;;;;;;1.00;0.30;;;;;;;;;;5064577;28;20502;-71
2023/11/05 03:25:38;;;;;;;0.75;0.40;;;;;;;;;;5052781;28;20120;-72
2023/11/05 03:28:10;;;;;;;0.50;0.30;;;;;;;;;;5068066;28;20056;-72
2023/11/05 03:30:35;;;;;;;0.63;0.30;;;;;;;;;;5063847;28;20033;-72
2023/11/05 03:33:04;;;;;;;0.82;0.40;;;;;;;;;;5051197;28;20490;-71
2023/11/05 03:35:29;;;;;;;0.70;0.40;;;;;;;;;;5041589;28;20455;-71
2023/11/05 03:37:55;;;;;;;0.68;0.47;;;;;;;;;;5052525;28;20094;-74
2023/11/05 03:40:21;;;;;;;0.60;0.25;;;;;;;;;;5057359;28;20028;-72
2023/11/05 03:42:46;;;;;;;0.65;0.30;;;;;;;;;;5053061;28;20033;-72
2023/11/05 03:45:11;;;;;;;0.50;0.20;;;;;;;;;;5060635;28;20128;-71
2023/11/05 03:47:36;;;;;;;0.82;0.40;;;;;;;;;;5055804;28;20029;-72
2023/11/05 03:50:02;;;;;;;1.07;0.30;;;;;;;;;;5064113;28;20033;-71
2023/11/05 03:52:27;;;;;;;1.13;0.50;;;;;;;;;;5055521;28;20295;-71
2023/11/05 03:54:55;;;;;;;1.00;0.30;;;;;;;;;;5047017;28;20173;-72
2023/11/05 03:57:20;;;;;;;0.45;0.30;;;;;;;;;;5052825;28;20472;-71
2023/11/05 03:59:45;;;;;;;0.67;0.40;;;;;;;;;;5053539;28;20111;-72
2023/11/05 04:02:10;;;;;;;0.57;0.30;;;;;;;;;;5063595;28;20409;-72
2023/11/05 04:04:36;;;;;;;1.27;0.60;;;;;;;;;;5055524;28;20148;-72
2023/11/05 04:07:05;;;;;;;0.65;0.30;;;;;;;;;;5047868;28;20021;-73
2023/11/05 04:09:30;;;;;;;0.82;0.40;;;;;;;;;;5060578;28;20672;-72
2023/11/05 04:11:55;;;;;;;0.32;0.20;;;;;;;;;;5050545;28;20135;-72
2023/11/05 04:14:21;;;;;;;0.77;0.37;;;;;;;;;;5054499;28;20036;-73
2023/11/05 04:16:46;;;;;;;0.82;0.40;;;;;;;;;;5061576;28;20808;-72
2023/11/05 04:19:12;;;;;;;1.20;0.40;;;;;;;;;;5057914;28;20032;-72
2023/11/05 04:21:37;;;;;;;1.00;0.25;;;;;;;;;;5058433;28;20507;-73
2023/11/05 04:24:03;;;;;;;1.75;0.40;;;;;;;;;;5064765;28;20123;-73
2023/11/05 04:26:28;;;;;;;1.58;0.30;;;;;;;;;;5064817;28;20037;-73
2023/11/05 04:28:54;;;;;;;1.23;0.20;;;;;;;;;;5049832;28;20041;-73
2023/11/05 04:31:19;;;;;;;0.68;0.30;;;;;;;;;;5061473;28;20034;-74
2023/11/05 04:33:44;;;;;;;0.73;0.22;;;;;;;;;;5052717;28;20033;-74
2023/11/05 04:36:10;;;;;;;1.48;0.32;;;;;;;;;;5056398;28;20132;-75
2023/11/05 04:38:36;;;;;;;1.02;0.50;;;;;;;;;;5057924;28;20036;-73
2023/11/05 04:41:01;;;;;;;0.50;0.30;;;;;;;;;;5052597;28;20545;-74
2023/11/05 04:43:27;;;;;;;0.57;0.20;;;;;;;;;;5058125;28;20120;-74
2023/11/05 04:45:52;;;;;;;0.65;0.40;;;;;;;;;;5058198;28;20041;-73
2023/11/05 04:48:17;;;;;;;1.13;0.40;;;;;;;;;;5058307;28;20123;-74
2023/11/05 04:50:42;;;;;;;0.90;0.30;;;;;;;;;;5051787;28;20736;-73
2023/11/05 04:53:08;;;;;;;0.68;0.30;;;;;;;;;;5056266;28;20033;-74
2023/11/05 04:55:33;;;;;;;1.15;0.30;;;;;;;;;;5051105;28;20110;-73
2023/11/05 04:57:58;;;;;;;0.63;0.20;;;;;;;;;;5057677;28;20180;-74
2023/11/05 05:00:24;;;;;;;0.80;0.30;;;;;;;;;;5051873;28;20423;-74
2023/11/05 05:02:49;;;;;;;0.55;0.30;;;;;;;;;;5058948;28;20415;-74
2023/11/05 05:05:16;;;;;;;1.10;0.30;;;;;;;;;;5046542;28;20041;-73
2023/11/05 05:07:41;;;;;;;0.83;0.30;;;;;;;;;;5032366;28;20102;-73
2023/11/05 05:10:07;;;;;;;0.80;0.30;;;;;;;;;;5054080;28;20274;-73
2023/11/05 05:12:33;;;;;;;0.70;0.30;;;;;;;;;;5062496;28;20303;-73
2023/11/05 05:15:03;;;;;;;1.15;0.25;;;;;;;;;;5047881;28;20044;-73
2023/11/05 05:17:28;;;;;;;0.98;0.25;;;;;;;;;;5043307;28;20044;-73
2023/11/05 05:19:53;;;;;;;0.85;0.40;;;;;;;;;;5062042;28;20516;-74
2023/11/05 05:22:19;;;;;;;0.90;0.30;;;;;;;;;;5063723;28;20036;-73
2023/11/05 05:24:44;;;;;;;0.80;0.30;;;;;;;;;;5049743;28;20794;-73
2023/11/05 05:27:09;;;;;;;0.77;0.30;;;;;;;;;;5058574;28;20043;-73
2023/11/05 05:29:34;;;;;;;0.47;0.20;;;;;;;;;;5061832;28;20036;-73
2023/11/05 05:32:00;;;;;;;1.37;0.33;;;;;;;;;;5056706;28;20045;-73
2023/11/05 05:34:25;;;;;;;1.65;0.30;;;;;;;;;;5049176;28;20295;-73
2023/11/05 05:36:51;;;;;;;0.68;0.30;;;;;;;;;;5051873;28;20029;-73
2023/11/05 05:39:17;;;;;;;0.60;0.22;;;;;;;;;;5051051;28;20039;-73
2023/11/05 05:41:43;;;;;;;1.60;0.30;;;;;;;;;;5051113;28;20480;-74
2023/11/05 05:44:08;;;;;;;1.05;0.40;;;;;;;;;;5065184;28;20048;-73
2023/11/05 05:46:33;;;;;;;0.37;0.20;;;;;;;;;;5054366;28;20231;-75
2023/11/05 05:48:59;;;;;;;0.65;0.30;;;;;;;;;;5054565;28;20756;-74
2023/11/05 05:51:24;;;;;;;1.75;0.30;;;;;;;;;;5049168;28;20230;-75
2023/11/05 05:53:50;;;;;;;3.75;0.40;;;;;;;;;;5049809;28;20045;-72
2023/11/05 05:56:15;;;;;;;0.70;0.25;;;;;;;;;;5049150;28;20037;-72
2023/11/05 05:58:42;;;;;;;0.93;0.40;;;;;;;;;;5052154;28;20037;-73
2023/11/05 06:01:07;;;;;;;0.50;0.30;;;;;;;;;;5050610;28;20068;-73
2023/11/05 06:03:33;;;;;;;0.88;0.30;;;;;;;;;;5044240;28;20117;-73
2023/11/05 06:05:58;;;;;;;1.38;0.45;;;;;;;;;;5049383;28;20048;-74
2023/11/05 06:08:23;;;;;;;1.13;0.30;;;;;;;;;;5051158;28;20327;-74
2023/11/05 06:10:49;;;;;;;0.98;0.40;;;;;;;;;;5051223;28;20317;-73
2023/11/05 06:13:14;;;;;;;0.40;0.22;;;;;;;;;;5049761;28;20036;-71
2023/11/05 06:15:40;;;;;;;1.03;0.40;;;;;;;;;;5050978;28;20075;-71
2023/11/05 06:18:06;;;;;;;0.68;0.30;;;;;;;;;;5050945;28;20790;-72
2023/11/05 06:20:31;;;;;;;0.85;0.32;;;;;;;;;;5049956;28;20106;-71
2023/11/05 06:22:56;;;;;;;0.60;0.22;;;;;;;;;;5050110;28;20033;-70
2023/11/05 06:25:22;;;;;;;1.00;0.40;;;;;;;;;;5049001;28;20531;-75
2023/11/05 06:27:47;;;;;;;1.30;0.30;;;;;;;;;;5050564;28;20672;-74
2023/11/05 06:30:13;;;;;;;0.95;0.40;;;;;;;;;;5051262;28;20841;-76
2023/11/05 06:32:39;;;;;;;0.57;0.28;;;;;;;;;;5052655;28;20040;-75
2023/11/05 06:35:04;;;;;;;1.38;0.30;;;;;;;;;;5052535;28;20098;-75
2023/11/05 06:37:30;;;;;;;0.70;0.30;;;;;;;;;;5055763;28;20062;-77
2023/11/05 06:39:56;;;;;;;1.67;0.40;;;;;;;;;;5053395;28;20037;-74
2023/11/05 06:42:21;;;;;;;0.80;0.50;;;;;;;;;;5053181;28;20061;-74
2023/11/05 06:44:46;;;;;;;1.10;0.40;;;;;;;;;;5057444;28;20621;-75
2023/11/05 06:47:12;;;;;;;0.90;0.30;;;;;;;;;;5054504;28;20129;-73
2023/11/05 06:49:37;;;;;;;1.02;0.30;;;;;;;;;;5050819;28;20047;-72
2023/11/05 06:52:02;;;;;;;1.45;0.30;;;;;;;;;;5053707;28;20039;-73
2023/11/05 06:54:28;;;;;;;0.80;0.50;;;;;;;;;;5053173;28;20133;-71
2023/11/05 06:56:53;;;;;;;1.10;0.30;;;;;;;;;;5054818;28;20044;-71
2023/11/05 06:59:19;;;;;;;1.15;0.30;;;;;;;;;;5054399;28;20029;-73
2023/11/05 07:01:46;;;;;;;0.88;0.30;;;;;;;;;;5054132;28;20036;-68
2023/11/05 07:04:12;;;;;;;0.63;0.30;;;;;;;;;;5050490;28;20032;-72
2023/11/05 07:06:37;;;;;;;0.88;0.40;;;;;;;;;;5050458;28;20017;-72
2023/11/05 07:09:02;;;;;;;1.17;0.45;;;;;;;;;;5053819;28;20401;-72
2023/11/05 07:11:30;;;;;;;1.63;0.40;;;;;;;;;;5053993;28;20035;-72
2023/11/05 07:13:55;;;;;;;0.88;0.32;;;;;;;;;;5053978;28;20048;-73
2023/11/05 07:16:20;;;;;;;2.10;0.45;;;;;;;;;;5051628;28;20048;-74
2023/11/05 07:18:46;;;;;;;1.08;0.60;;;;;;;;;;5054723;28;20085;-71
2023/11/05 07:21:13;;;;;;;2.17;0.45;;;;;;;;;;5052018;28;20395;-73
2023/11/05 07:23:38;;;;;;;0.38;0.20;;;;;;;;;;5054953;28;20103;-71
2023/11/05 07:26:04;;;;;;;1.07;0.33;;;;;;;;;;5054874;28;20563;-73
2023/11/05 07:28:29;;;;;;;1.33;0.35;;;;;;;;;;5056127;28;20302;-76
2023/11/05 07:30:55;;;;;;;1.52;0.40;;;;;;;;;;5041295;28;20086;-73
2023/11/05 07:33:20;;;;;;;0.80;0.30;;;;;;;;;;5053740;28;20021;-73
2023/11/05 07:35:45;;;;;;;1.20;0.43;;;;;;;;;;5055243;28;20056;-74
2023/11/05 07:38:11;;;;;;;1.52;0.30;;;;;;;;;;5053689;28;20118;-75
2023/11/05 07:40:36;;;;;;;0.70;0.30;;;;;;;;;;5052736;28;20115;-77
2023/11/05 07:43:01;;;;;;;0.88;0.30;;;;;;;;;;5052047;28;20276;-74
2023/11/05 07:45:27;;;;;;;0.70;0.35;;;;;;;;;;5056255;28;20025;-71
2023/11/05 07:47:52;;;;;;;1.23;0.50;;;;;;;;;;5054044;28;20320;-71
2023/11/05 07:50:17;;;;;;;0.80;0.40;;;;;;;;;;5049966;28;20545;-73
2023/11/05 07:52:43;;;;;;;1.65;0.30;;;;;;;;;;5050967;28;20032;-74
2023/11/05 07:55:08;;;;;;;1.35;0.50;;;;;;;;;;5049475;28;20503;-74
2023/11/05 07:57:34;;;;;;;1.13;0.30;;;;;;;;;;5052427;28;20012;-74
2023/11/05 08:00:00;;;;;;;1.20;0.20;;;;;;;;;;5053499;28;20025;-76
2023/11/05 08:02:25;;;;;;;2.05;0.40;;;;;;;;;;5055162;28;20045;-75
2023/11/05 08:04:50;;;;;;;1.85;0.40;;;;;;;;;;5050163;28;20127;-73
2023/11/05 08:07:16;;;;;;;2.67;0.65;;;;;;;;;;5056565;28;20108;-71
2023/11/05 08:09:41;;;;;;;1.17;0.50;;;;;;;;;;5057195;28;20059;-74
2023/11/05 08:12:06;;;;;;;1.23;0.30;;;;;;;;;;5049118;28;20024;-77
2023/11/05 08:14:32;;;;;;;2.38;0.50;;;;;;;;;;5053141;28;20127;-74
2023/11/05 08:16:57;;;;;;;1.38;0.50;;;;;;;;;;5053857;28;20048;-73
2023/11/05 08:19:22;;;;;;;0.90;0.30;;;;;;;;;;5055640;28;20242;-72
2023/11/05 08:21:48;;;;;;;2.15;0.45;;;;;;;;;;5053945;28;20285;-72
2023/11/05 08:24:13;;;;;;;3.97;0.40;;;;;;;;;;5052910;28;20120;-73
2023/11/05 08:26:39;;;;;;;1.40;0.30;;;;;;;;;;5055098;28;20131;-72
2023/11/05 08:29:04;;;;;;;4.20;0.50;;;;;;;;;;5055122;28;20106;-74
2023/11/05 08:31:29;;;;;;;1.88;0.50;;;;;;;;;;5039140;28;20482;-71
2023/11/05 08:33:55;;;;;;;3.67;0.50;;;;;;;;;;5052904;28;20041;-73
2023/11/05 08:36:20;;;;;;;3.58;0.60;;;;;;;;;;5055287;28;20356;-72
2023/11/05 08:38:45;;;;;;;2.38;0.73;;;;;;;;;;5050258;28;20049;-73
2023/11/05 08:41:11;;;;;;;1.40;0.32;;;;;;;;;;5051127;28;20029;-73
2023/11/05 08:43:36;;;;;;;1.93;0.40;;;;;;;;;;5057493;28;20037;-73
2023/11/05 08:46:01;;;;;;;2.88;0.50;;;;;;;;;;5052375;28;21078;-73
2023/11/05 08:48:27;;;;;;;1.50;0.50;;;;;;;;;;5051807;28;20040;-71
2023/11/05 08:50:52;;;;;;;1.52;0.30;;;;;;;;;;5049420;28;20757;-73
2023/11/05 08:53:21;;;;;;;1.23;0.50;;;;;;;;;;5052466;28;20051;-73
2023/11/05 08:55:46;;;;;;;0.93;0.40;;;;;;;;;;5052604;28;20044;-73
2023/11/05 08:58:12;;;;;;;2.25;0.52;;;;;;;;;;5052128;28;20779;-73
2023/11/05 09:00:37;;;;;;;1.27;0.40;;;;;;;;;;5051493;28;20174;-73
2023/11/05 09:03:04;;;;;;;1.55;0.50;;;;;;;;;;5051535;28;20283;-73
2023/11/05 09:05:29;;;;;;;2.35;0.45;;;;;;;;;;5050461;28;20154;-73
2023/11/05 09:07:55;;;;;;;2.92;0.60;;;;;;;;;;5043770;28;20601;-73
2023/11/05 09:10:26;;;;;;;1.98;0.43;;;;;;;;;;5059838;28;20041;-73
2023/11/05 09:12:53;;;;;;;2.17;0.40;;;;;;;;;;5052348;28;20047;-73
2023/11/05 09:15:19;;;;;;;1.27;0.40;;;;;;;;;;5051182;28;20021;-73
2023/11/05 09:17:44;;;;;;;1.33;0.20;;;;;;;;;;5051366;28;20041;-73
2023/11/05 09:20:10;;;;;;;1.67;0.60;;;;;;;;;;5050107;28;20036;-73
2023/11/05 09:22:36;;;;;;;2.40;0.70;;;;;;;;;;5049680;28;20298;-73
2023/11/05 09:25:04;;;;;;;1.15;0.45;;;;;;;;;;5050316;28;20041;-73
2023/11/05 09:27:29;;;;;;;1.83;0.47;;;;;;;;;;5051263;28;20698;-73
2023/11/05 09:29:55;;;;;;;1.15;0.40;;;;;;;;;;5050609;28;20120;-72
2023/11/05 09:32:20;;;;;;;2.08;0.60;;;;;;;;;;5051826;28;20466;-72
2023/11/05 09:34:45;;;;;;;1.38;0.50;;;;;;;;;;5052725;28;20487;-72
2023/11/05 09:37:10;;;;;;;1.73;0.50;;;;;;;;;;5053562;28;20033;-72
2023/11/05 09:39:36;;;;;;;2.13;0.50;;;;;;;;;;5058332;28;20065;-76
2023/11/05 09:42:01;;;;;;;2.10;0.53;;;;;;;;;;5061180;28;20418;-72
2023/11/05 09:44:27;;;;;;;1.73;0.40;;;;;;;;;;5058646;28;20291;-79
2023/11/05 09:46:52;;;;;;;2.42;0.77;;;;;;;;;;5046726;28;20033;-73
2023/11/05 09:49:17;;;;;;;1.90;0.60;;;;;;;;;;5054658;28;20045;-73
2023/11/05 09:51:46;;;;;;;3.30;0.75;;;;;;;;;;5063532;28;20041;-74
2023/11/05 09:54:11;;;;;;;2.90;0.70;;;;;;;;;;5054767;28;20061;-72
2023/11/05 09:56:36;;;;;;;1.85;0.60;;;;;;;;;;5053448;28;20056;-73
2023/11/05 09:59:02;;;;;;;3.13;0.57;;;;;;;;;;5053223;28;20082;-72
2023/11/05 10:01:30;;;;;;;2.60;0.50;;;;;;;;;;5054537;28;20033;-73
2023/11/05 10:03:56;;;;;;;2.35;0.60;;;;;;;;;;5059141;28;20072;-69
2023/11/05 10:06:21;;;;;;;2.70;0.82;;;;;;;;;;5056194;28;20056;-68
2023/11/05 10:08:47;;;;;;;1.00;0.43;;;;;;;;;;5058826;28;20090;-70
2023/11/05 10:11:12;;;;;;;2.05;0.60;;;;;;;;;;5059095;28;20052;-71
2023/11/05 10:13:37;;;;;;;1.98;0.45;;;;;;;;;;5060295;28;20446;-70
2023/11/05 10:16:04;;;;;;;1.55;0.40;;;;;;;;;;5060822;28;20036;-71
2023/11/05 10:18:33;;;;;;;1.98;0.60;;;;;;;;;;5058177;28;20346;-72
2023/11/05 10:20:58;;;;;;;2.58;0.70;;;;;;;;;;5057723;28;20032;-73
2023/11/05 10:23:24;;;;;;;2.58;0.55;;;;;;;;;;5058071;28;20592;-73
2023/11/05 10:25:52;;;;;;;2.17;0.50;;;;;;;;;;5058689;28;20044;-71
2023/11/05 10:28:21;;;;;;;3.20;0.70;;;;;;;;;;5057144;28;20036;-72
2023/11/05 10:30:47;;;;;;;2.88;0.80;;;;;;;;;;5058494;28;20025;-72
2023/11/05 10:33:13;;;;;;;2.17;0.65;;;;;;;;;;5060660;28;20043;-74
2023/11/05 10:35:40;;;;;;;3.33;0.75;;;;;;;;;;5055098;28;20057;-73
2023/11/05 10:38:05;;;;;;;4.68;0.77;;;;;;;;;;5055446;28;20029;-75
2023/11/05 10:40:30;;;;;;;2.05;0.55;;;;;;;;;;5053797;28;20043;-79
2023/11/05 10:42:56;;;;;;;3.72;0.75;;;;;;;;;;5042529;28;20037;-72
2023/11/05 10:45:25;;;;;;;3.45;0.85;;;;;;;;;;5053441;28;20056;-73
2023/11/05 10:47:50;;;;;;;1.30;0.55;;;;;;;;;;5052540;28;20036;-72
2023/11/05 10:50:20;;;;;;;4.80;1.00;;;;;;;;;;5055073;28;20044;-74
2023/11/05 10:52:46;;;;;;;3.30;0.80;;;;;;;;;;5060661;28;20036;-72
2023/11/05 10:55:12;;;;;;;2.92;1.00;;;;;;;;;;5055629;28;20099;-73
2023/11/05 10:57:43;;;;;;;4.05;0.85;;;;;;;;;;5056034;28;20033;-73
2023/11/05 11:00:24;;;;;;;3.55;0.77;;;;;;;;;;5054912;28;20029;-73
2023/11/05 11:02:50;;;;;;;6.13;1.08;;;;;;;;;;5055705;28;20135;-72
2023/11/05 11:05:16;;;;;;;4.20;0.77;;;;;;;;;;5055802;28;20112;-72
2023/11/05 11:07:41;;;;;;;5.18;1.00;;;;;;;;;;5054220;28;20032;-72
2023/11/05 11:10:09;;;;;;;3.63;0.95;;;;;;;;;;5055690;28;20173;-73
2023/11/05 11:12:34;;;;;;;4.18;0.88;;;;;;;;;;5055500;28;20123;-73
2023/11/05 11:15:04;;;;;;;4.07;0.88;;;;;;;;;;5060589;28;20136;-72
2023/11/05 11:17:39;;;;;;;3.72;0.90;;;;;;;;;;5059637;28;20025;-73
2023/11/05 11:20:09;;;;;;;2.97;0.80;;;;;;;;;;5056628;28;20041;-72
2023/11/05 11:22:45;;;;;;;3.92;0.82;;;;;;;;;;5055378;28;20373;-75
2023/11/05 11:25:12;;;;;;;4.68;1.00;;;;;;;;;;5054417;28;20519;-74
2023/11/05 11:27:40;;;;;;;5.88;1.05;;;;;;;;;;5053282;28;20078;-71
2023/11/05 11:30:09;;;;;;;5.07;1.02;;;;;;;;;;5053650;28;20016;-75
2023/11/05 11:32:34;;;;;;;1.88;0.80;;;;;;;;;;5042814;28;20063;-75
2023/11/05 11:34:59;;;;;;;3.53;1.00;;;;;;;;;;5037918;28;20099;-75
2023/11/05 11:37:25;;;;;;;3.15;0.80;;;;;;;;;;5055051;28;20037;-77
2023/11/05 11:39:50;;;;;;;2.13;0.43;;;;;;;;;;5053972;28;20029;-73
2023/11/05 11:42:16;;;;;;;4.55;0.90;;;;;;;;;;5054456;28;20791;-76
2023/11/05 11:44:42;;;;;;;4.32;1.02;;;;;;;;;;5051138;28;20097;-75
2023/11/05 11:47:07;;;;;;;4.82;1.08;;;;;;;;;;5053285;28;20017;-72
2023/11/05 11:49:33;;;;;;;2.58;0.98;;;;;;;;;;5055765;28;20623;-72
2023/11/05 11:51:58;;;;;;;3.03;0.73;;;;;;;;;;5051000;28;20469;-73
2023/11/05 11:54:26;;;;;;;3.20;0.75;;;;;;;;;;5052146;28;20045;-73
2023/11/05 11:56:51;;;;;;;3.63;0.82;;;;;;;;;;5052296;28;20035;-73
2023/11/05 11:59:17;;;;;;;3.08;0.95;;;;;;;;;;5052608;28;20021;-73
2023/11/05 12:01:43;;;;;;;2.15;0.85;;;;;;;;;;5050927;28;20032;-73
2023/11/05 12:04:09;;;;;;;2.55;0.90;;;;;;;;;;5051494;28;20130;-76
2023/11/05 12:06:37;;;;;;;5.50;0.80;;;;;;;;;;5058604;28;20069;-74
2023/11/05 12:09:03;;;;;;;3.70;0.70;;;;;;;;;;5057559;28;20043;-76
2023/11/05 12:11:29;;;;;;;3.17;0.88;;;;;;;;;;5043418;28;20598;-75
2023/11/05 12:13:54;;;;;;;2.13;0.55;;;;;;;;;;5036340;28;20047;-74
2023/11/05 12:16:20;;;;;;;2.00;1.00;;;;;;;;;;5052783;28;20499;-75
2023/11/05 12:18:45;;;;;;;2.30;0.77;;;;;;;;;;5055512;28;20044;-75
2023/11/05 12:21:11;;;;;;;4.20;0.70;;;;;;;;;;5041893;28;20032;-75
2023/11/05 12:23:37;;;;;;;4.00;0.80;;;;;;;;;;5053896;28;20589;-75
2023/11/05 12:26:03;;;;;;;3.60;1.02;;;;;;;;;;5053288;28;20052;-75
2023/11/05 12:28:28;;;;;;;3.80;0.80;;;;;;;;;;5050695;28;20165;-76
2023/11/05 12:31:00;;;;;;;2.35;0.60;;;;;;;;;;5052588;28;20558;-72
2023/11/05 12:33:26;;;;;;;3.92;0.88;;;;;;;;;;5050583;28;20419;-75
2023/11/05 12:35:51;;;;;;;3.65;0.50;;;;;;;;;;5052725;28;20032;-74
2023/11/05 12:38:17;;;;;;;2.70;0.60;;;;;;;;;;5056497;28;20044;-74
2023/11/05 12:40:42;;;;;;;2.47;0.50;;;;;;;;;;5051861;28;20033;-74
2023/11/05 12:43:08;;;;;;;2.83;0.60;;;;;;;;;;5050268;28;20482;-76
2023/11/05 12:45:33;;;;;;;2.08;0.70;;;;;;;;;;5051244;28;20734;-77
2023/11/05 12:47:59;;;;;;;2.40;0.85;;;;;;;;;;5051126;28;20349;-73
2023/11/05 12:50:24;;;;;;;2.00;0.63;;;;;;;;;;5049716;28;20516;-76
2023/11/05 12:52:50;;;;;;;2.22;0.70;;;;;;;;;;5051013;28;20127;-73
2023/11/05 12:55:15;;;;;;;3.25;0.50;;;;;;;;;;5053502;28;20036;-75
2023/11/05 12:57:41;;;;;;;3.17;0.70;;;;;;;;;;5048619;28;20129;-75
2023/11/05 13:00:07;;;;;;;3.80;0.65;;;;;;;;;;5050778;28;20487;-73
2023/11/05 13:02:33;;;;;;;3.25;0.50;;;;;;;;;;5049255;28;20140;-72
2023/11/05 13:04:58;;;;;;;2.53;0.55;;;;;;;;;;5048834;28;20833;-73
2023/11/05 13:07:23;;;;;;;2.60;0.60;;;;;;;;;;5050747;28;20040;-73
2023/11/05 13:09:49;;;;;;;2.90;0.50;;;;;;;;;;5049871;28;20033;-73
2023/11/05 13:12:15;;;;;;;2.40;0.40;;;;;;;;;;5049150;28;20294;-72
2023/11/05 13:14:40;;;;;;;2.47;0.50;;;;;;;;;;5051552;28;20028;-73
2023/11/05 13:17:05;;;;;;;3.50;1.20;;;;;;;;;;5050006;28;20353;-75
2023/11/05 13:19:32;;;;;;;1.67;0.53;;;;;;;;;;5051538;28;20378;-74
2023/11/05 13:21:57;;;;;;;2.70;0.60;;;;;;;;;;5050899;28;20291;-74
2023/11/05 13:24:22;;;;;;;2.83;0.60;;;;;;;;;;5049672;28;20044;-76
2023/11/05 13:26:48;;;;;;;3.33;0.60;;;;;;;;;;5051489;28;20040;-74
2023/11/05 13:29:13;;;;;;;1.98;0.60;;;;;;;;;;5048656;28;20041;-72
2023/11/05 13:31:38;;;;;;;1.70;0.40;;;;;;;;;;5050290;28;20037;-73
2023/11/05 13:34:03;;;;;;;2.10;0.47;;;;;;;;;;5050998;28;20986;-72
2023/11/05 13:36:29;;;;;;;2.30;0.50;;;;;;;;;;5053159;28;20364;-73
2023/11/05 13:38:54;;;;;;;2.45;0.45;;;;;;;;;;5049281;28;20052;-75
2023/11/05 13:41:20;;;;;;;2.55;0.45;;;;;;;;;;5049779;28;20527;-74
2023/11/05 13:43:47;;;;;;;1.55;0.40;;;;;;;;;;5048538;28;20040;-74
2023/11/05 13:46:12;;;;;;;2.58;0.80;;;;;;;;;;5048568;28;20107;-72
2023/11/05 13:48:37;;;;;;;1.42;0.50;;;;;;;;;;5048476;28;20446;-73
2023/11/05 13:51:03;;;;;;;2.30;0.50;;;;;;;;;;5048738;28;20028;-74
2023/11/05 13:53:29;;;;;;;0.60;0.30;;;;;;;;;;5032823;28;20037;-74
2023/11/05 13:55:54;;;;;;;1.83;0.43;;;;;;;;;;5049767;28;20029;-75
2023/11/05 13:58:19;;;;;;;1.63;0.40;;;;;;;;;;5050768;28;20040;-74
2023/11/05 14:00:45;;;;;;;1.70;0.45;;;;;;;;;;5051563;28;20096;-74
2023/11/05 14:03:11;;;;;;;2.13;0.40;;;;;;;;;;5050799;28;20040;-72
2023/11/05 14:05:36;;;;;;;2.55;0.60;;;;;;;;;;5048563;28;20040;-72
2023/11/05 14:08:03;;;;;;;3.33;0.40;;;;;;;;;;5051977;28;20043;-72
2023/11/05 14:10:29;;;;;;;1.52;0.40;;;;;;;;;;5054016;28;20037;-73
2023/11/05 14:12:54;;;;;;;3.63;0.68;;;;;;;;;;5072050;28;20040;-73
2023/11/05 14:15:19;;;;;;;2.78;0.40;;;;;;;;;;5072341;28;20036;-74
2023/11/05 14:17:45;;;;;;;2.10;0.55;;;;;;;;;;5073885;28;21687;-75
2023/11/05 14:20:10;;;;;;;3.28;0.60;;;;;;;;;;5076332;28;20043;-76
2023/11/05 14:22:37;;;;;;;2.47;0.50;;;;;;;;;;5067877;28;20040;-76
2023/11/05 14:25:03;;;;;;;2.53;0.50;;;;;;;;;;5052778;28;20063;-75
2023/11/05 14:27:28;;;;;;;1.52;0.45;;;;;;;;;;5047909;28;20730;-73
2023/11/05 14:29:56;;;;;;;3.93;0.63;;;;;;;;;;5048718;28;20043;-73
2023/11/05 14:32:21;;;;;;;2.53;0.70;;;;;;;;;;5052278;28;20374;-73
2023/11/05 14:34:48;;;;;;;1.58;0.68;;;;;;;;;;5054388;28;20121;-74
2023/11/05 14:37:14;;;;;;;2.83;0.52;;;;;;;;;;5054221;28;20032;-73